Time;durP1;ratioP1;P1;durP2;ratioP2;P2;SDS_P1;SDS_P2;PMS_P1;PMS_P2;Temp;Humidity;BMP_temperature;BMP_pressure;BME280_temperature;BME280_humidity;BME280_pressure;Samples;Min_cycle;Max_cycle;Signal;HPM_P1;HPM_P2
2022/08/05 00:01:22;;;;;;;3.43;3.13;;;21.70;43.30;;;;;;4182011;28;20245;-75
2022/08/05 00:03:23;;;;;;;3.07;2.57;;;21.70;43.30;;;;;;4181340;28;20641;-75
2022/08/05 00:05:24;;;;;;;3.33;3.03;;;21.80;43.40;;;;;;4181343;28;20231;-76
2022/08/05 00:07:24;;;;;;;3.03;2.73;;;21.70;43.60;;;;;;4164358;28;20881;-75
2022/08/05 00:09:25;;;;;;;4.37;3.57;;;21.80;43.70;;;;;;4180836;28;20188;-75
2022/08/05 00:11:27;;;;;;;2.93;2.63;;;21.70;43.90;;;;;;4180671;28;20295;-75
2022/08/05 00:13:34;;;;;;;4.03;2.90;;;21.70;44.00;;;;;;4165260;28;20223;-76
2022/08/05 00:15:35;;;;;;;2.27;2.07;;;21.70;44.30;;;;;;4180424;28;20182;-74
2022/08/05 00:17:36;;;;;;;10.53;9.83;;;21.90;43.00;;;;;;4181723;28;20641;-74
2022/08/05 00:19:36;;;;;;;4.23;2.63;;;22.00;43.50;;;;;;4181872;28;20177;-74
2022/08/05 00:21:37;;;;;;;2.33;2.13;;;22.20;42.20;;;;;;4163854;28;20201;-75
2022/08/05 00:23:39;;;;;;;2.77;2.57;;;22.40;41.30;;;;;;4180778;28;20211;-75
2022/08/05 00:25:39;;;;;;;3.00;2.30;;;22.40;41.40;;;;;;4180821;28;20631;-75
2022/08/05 00:27:40;;;;;;;2.40;2.20;;;22.50;41.30;;;;;;4181713;28;20195;-74
2022/08/05 00:29:41;;;;;;;2.83;2.33;;;22.50;41.30;;;;;;4163973;28;20680;-75
2022/08/05 00:31:41;;;;;;;2.40;2.20;;;22.60;41.10;;;;;;4180143;28;20560;-75
2022/08/05 00:33:42;;;;;;;2.67;2.47;;;22.60;41.10;;;;;;4180676;28;20220;-74
2022/08/05 00:35:43;;;;;;;3.70;2.60;;;22.70;40.80;;;;;;4180199;28;20216;-74
2022/08/05 00:37:43;;;;;;;2.40;2.20;;;22.70;40.90;;;;;;4179368;28;20194;-75
2022/08/05 00:39:44;;;;;;;2.10;2.00;;;22.70;41.40;;;;;;4179432;28;20606;-75
2022/08/05 00:41:46;;;;;;;4.90;4.60;;;22.60;41.30;;;;;;4178184;28;20197;-75
2022/08/05 00:43:47;;;;;;;2.83;2.03;;;22.70;41.20;;;;;;4163163;28;20196;-75
2022/08/05 00:45:48;;;;;;;2.53;2.33;;;22.70;41.10;;;;;;4162875;28;20201;-76
2022/08/05 00:47:49;;;;;;;3.43;3.20;;;22.70;42.30;;;;;;4163005;28;20276;-75
2022/08/05 00:49:49;;;;;;;2.47;2.20;;;22.70;41.00;;;;;;4163125;28;20607;-75
2022/08/05 00:51:50;;;;;;;3.43;2.27;;;22.80;40.80;;;;;;4163412;28;20572;-74
2022/08/05 00:53:51;;;;;;;2.73;2.50;;;22.80;41.90;;;;;;4162776;28;20324;-75
2022/08/05 00:55:51;;;;;;;2.87;2.57;;;22.80;40.70;;;;;;4164289;28;20887;-75
2022/08/05 00:57:52;;;;;;;2.47;2.00;;;22.80;40.80;;;;;;4162887;28;20243;-75
2022/08/05 00:59:53;;;;;;;3.33;3.03;;;22.80;40.70;;;;;;4163844;28;20271;-75
2022/08/05 01:01:53;;;;;;;2.93;2.63;;;22.90;40.30;;;;;;4162068;28;20713;-75
2022/08/05 01:03:54;;;;;;;6.27;2.00;;;23.00;40.20;;;;;;4163879;28;20177;-75
2022/08/05 01:05:55;;;;;;;2.50;2.23;;;22.90;40.20;;;;;;4163815;28;20231;-75
2022/08/05 01:07:55;;;;;;;4.63;2.10;;;22.90;40.30;;;;;;4162391;28;20200;-75
2022/08/05 01:09:56;;;;;;;3.90;2.00;;;22.90;40.60;;;;;;4162224;28;20187;-74
2022/08/05 01:12:03;;;;;;;3.47;3.07;;;22.80;40.70;;;;;;4161876;28;20205;-74
2022/08/05 01:14:25;;;;;;;3.93;3.10;;;22.80;40.90;;;;;;4162257;28;20161;-74
2022/08/05 01:17:08;;;;;;;3.20;1.97;;;22.70;41.40;;;;;;4162168;28;20713;-74
2022/08/05 01:19:17;;;;;;;2.70;2.50;;;22.70;41.20;;;;;;4162118;28;20169;-74
2022/08/05 01:21:50;;;;;;;2.13;1.93;;;22.70;41.30;;;;;;4163084;28;20232;-74
2022/08/05 01:24:33;;;;;;;2.70;2.50;;;22.70;41.40;;;;;;4161509;28;20181;-75
2022/08/05 01:26:47;;;;;;;4.53;3.60;;;22.70;41.40;;;;;;4178895;28;20537;-74
2022/08/05 01:29:00;;;;;;;3.63;3.30;;;22.70;41.90;;;;;;4178448;28;20285;-74
2022/08/05 01:31:20;;;;;;;2.53;2.33;;;22.50;42.30;;;;;;4177629;28;20259;-74
2022/08/05 01:33:28;;;;;;;2.37;2.17;;;22.60;42.00;;;;;;4179717;28;20231;-74
2022/08/05 01:35:31;;;;;;;3.37;2.93;;;22.50;42.40;;;;;;4178418;28;20167;-75
2022/08/05 01:37:44;;;;;;;5.67;2.77;;;22.40;42.60;;;;;;4178282;28;20191;-75
2022/08/05 01:39:48;;;;;;;3.80;3.50;;;22.50;42.70;;;;;;4178168;28;20179;-74
2022/08/05 01:41:50;;;;;;;3.40;3.10;;;22.40;42.90;;;;;;4177555;28;20200;-74
2022/08/05 01:43:53;;;;;;;2.93;2.73;;;22.50;43.00;;;;;;4178194;28;20223;-75
2022/08/05 01:45:55;;;;;;;3.70;3.40;;;22.40;43.20;;;;;;4178206;28;20180;-77
2022/08/05 01:47:58;;;;;;;3.77;3.47;;;22.30;43.60;;;;;;4178350;28;20191;-73
2022/08/05 01:50:02;;;;;;;4.47;4.17;;;22.20;43.70;;;;;;4178162;28;20898;-74
2022/08/05 01:52:04;;;;;;;5.60;5.00;;;22.20;44.10;;;;;;4177361;28;20294;-74
2022/08/05 01:54:07;;;;;;;3.37;3.17;;;22.20;44.30;;;;;;4161624;28;20243;-74
2022/08/05 01:56:11;;;;;;;5.63;4.10;;;22.20;44.10;;;;;;4178013;28;20263;-74
2022/08/05 01:58:13;;;;;;;4.10;3.80;;;22.30;45.40;;;;;;4161406;28;20211;-74
2022/08/05 02:00:14;;;;;;;3.20;2.90;;;22.20;44.10;;;;;;4177449;28;20186;-74
2022/08/05 02:02:19;;;;;;;5.53;5.13;;;22.10;44.50;;;;;;4177712;28;20677;-75
2022/08/05 02:04:23;;;;;;;7.47;6.97;;;22.10;45.10;;;;;;4179336;28;20167;-75
2022/08/05 02:06:24;;;;;;;2.90;2.70;;;22.10;45.30;;;;;;4177930;28;20245;-74
2022/08/05 02:08:24;;;;;;;4.97;4.67;;;22.10;45.30;;;;;;4177783;28;20231;-74
2022/08/05 02:10:35;;;;;;;6.90;6.07;;;22.00;45.80;;;;;;4177250;28;20271;-74
2022/08/05 02:12:44;;;;;;;5.17;4.73;;;21.80;46.20;;;;;;4161207;28;20295;-74
2022/08/05 02:14:59;;;;;;;5.30;4.80;;;21.80;46.60;;;;;;4179229;28;20176;-74
2022/08/05 02:17:10;;;;;;;4.97;4.47;;;21.80;46.80;;;;;;4177692;28;20165;-74
2022/08/05 02:19:21;;;;;;;15.70;14.27;;;21.80;47.00;;;;;;4177752;28;20172;-74
2022/08/05 02:21:32;;;;;;;4.27;3.97;;;21.80;47.10;;;;;;4175683;28;20839;-74
2022/08/05 02:23:39;;;;;;;8.53;7.77;;;21.80;47.20;;;;;;4178664;28;20233;-74
2022/08/05 02:25:43;;;;;;;4.57;4.17;;;21.70;47.50;;;;;;4177578;28;20739;-74
2022/08/05 02:27:47;;;;;;;4.67;3.23;;;21.70;47.70;;;;;;4177879;28;20188;-74
2022/08/05 02:29:49;;;;;;;4.80;4.33;;;21.70;48.00;;;;;;4155586;28;20197;-74
2022/08/05 02:31:52;;;;;;;4.23;3.93;;;21.60;48.10;;;;;;4176697;28;20634;-74
2022/08/05 02:34:01;;;;;;;3.27;2.97;;;21.60;48.20;;;;;;4177211;28;20223;-74
2022/08/05 02:36:06;;;;;;;6.23;5.63;;;21.60;48.30;;;;;;4161347;28;20169;-74
2022/08/05 02:38:09;;;;;;;3.73;3.30;;;21.60;48.30;;;;;;4172019;28;20233;-74
2022/08/05 02:40:10;;;;;;;4.67;4.27;;;21.60;48.40;;;;;;4160694;28;20192;-73
2022/08/05 02:42:11;;;;;;;3.50;3.00;;;21.60;48.50;;;;;;4160724;28;20189;-74
2022/08/05 02:44:13;;;;;;;9.57;8.97;;;21.60;48.70;;;;;;4161078;28;20185;-74
2022/08/05 02:46:15;;;;;;;5.20;4.33;;;21.60;49.10;;;;;;4157756;28;20177;-74
2022/08/05 02:48:17;;;;;;;3.60;3.20;;;21.60;49.10;;;;;;4160935;28;20214;-73
2022/08/05 02:50:20;;;;;;;3.80;3.50;;;21.70;48.60;;;;;;4177023;28;20604;-74
2022/08/05 02:52:22;;;;;;;3.50;2.93;;;21.70;48.70;;;;;;4177229;28;20915;-73
2022/08/05 02:54:23;;;;;;;6.57;3.77;;;21.60;49.10;;;;;;4177447;28;20653;-74
2022/08/05 02:56:26;;;;;;;6.90;6.37;;;21.50;49.50;;;;;;4178668;28;20899;-73
2022/08/05 02:58:28;;;;;;;7.13;6.53;;;21.50;49.70;;;;;;4161054;28;20296;-74
2022/08/05 03:00:29;;;;;;;7.63;7.17;;;21.40;50.10;;;;;;4176597;28;20205;-74
2022/08/05 03:02:38;;;;;;;9.53;9.00;;;21.30;50.20;;;;;;4178126;28;20208;-74
2022/08/05 03:04:41;;;;;;;23.23;21.50;;;21.20;51.30;;;;;;4178451;28;20578;-74
2022/08/05 03:06:42;;;;;;;8.90;8.20;;;21.10;51.50;;;;;;4177158;28;20176;-74
2022/08/05 03:08:43;;;;;;;5.77;5.30;;;21.10;51.60;;;;;;4177244;28;20719;-74
2022/08/05 03:10:45;;;;;;;9.67;8.93;;;21.00;52.10;;;;;;4160051;28;20181;-74
2022/08/05 03:12:46;;;;;;;5.43;3.83;;;20.90;52.30;;;;;;4177217;28;20294;-75
2022/08/05 03:14:46;;;;;;;13.23;12.17;;;20.90;52.60;;;;;;4177301;28;20168;-75
2022/08/05 03:16:47;;;;;;;13.07;12.20;;;20.80;52.60;;;;;;4177250;28;20848;-75
2022/08/05 03:18:48;;;;;;;4.67;4.37;;;20.70;53.10;;;;;;4177238;28;20306;-75
2022/08/05 03:20:49;;;;;;;3.80;3.23;;;20.60;53.70;;;;;;4177881;28;20212;-75
2022/08/05 03:22:50;;;;;;;3.90;2.63;;;20.50;53.70;;;;;;4178411;28;20173;-75
2022/08/05 03:24:51;;;;;;;5.40;4.90;;;20.50;53.90;;;;;;4176640;28;20188;-75
2022/08/05 03:26:52;;;;;;;3.97;3.67;;;20.40;54.40;;;;;;4177406;28;20183;-75
2022/08/05 03:28:52;;;;;;;6.20;5.70;;;20.20;54.90;;;;;;4176886;28;20200;-75
2022/08/05 03:30:55;;;;;;;3.90;3.63;;;20.20;54.90;;;;;;4177478;28;20212;-75
2022/08/05 03:32:55;;;;;;;3.83;3.63;;;20.20;54.90;;;;;;4177047;28;20654;-75
2022/08/05 03:34:56;;;;;;;3.47;3.17;;;20.10;54.80;;;;;;4177220;28;20300;-74
2022/08/05 03:36:57;;;;;;;4.63;3.50;;;20.10;55.70;;;;;;4177244;28;20711;-75
2022/08/05 03:38:58;;;;;;;2.93;2.73;;;20.00;56.00;;;;;;4177101;28;20184;-74
2022/08/05 03:40:58;;;;;;;7.53;7.03;;;20.00;56.20;;;;;;4176485;28;20258;-75
2022/08/05 03:42:59;;;;;;;4.47;4.13;;;19.90;56.00;;;;;;4177498;28;20184;-75
2022/08/05 03:45:00;;;;;;;17.73;16.50;;;19.90;56.20;;;;;;4176894;28;20263;-75
2022/08/05 03:47:01;;;;;;;5.47;5.07;;;19.80;57.10;;;;;;4178188;28;20180;-74
2022/08/05 03:49:01;;;;;;;4.40;4.10;;;19.60;58.00;;;;;;4176795;28;20241;-75
2022/08/05 03:51:20;;;;;;;5.67;5.27;;;19.50;58.20;;;;;;4176066;28;20215;-75
2022/08/05 03:53:32;;;;;;;3.47;2.97;;;19.50;58.20;;;;;;4178999;28;20212;-75
2022/08/05 03:55:37;;;;;;;5.80;5.37;;;19.50;58.20;;;;;;4179851;28;20190;-74
2022/08/05 03:57:42;;;;;;;5.00;2.30;;;19.50;58.00;;;;;;4163179;28;20588;-75
2022/08/05 03:59:50;;;;;;;4.67;3.07;;;19.50;58.20;;;;;;4179716;28;20865;-75
2022/08/05 04:01:54;;;;;;;6.07;5.67;;;19.40;58.30;;;;;;4179420;28;20293;-75
2022/08/05 04:03:57;;;;;;;10.63;9.93;;;19.40;58.60;;;;;;4179911;28;20527;-74
2022/08/05 04:05:58;;;;;;;3.70;3.37;;;19.40;59.00;;;;;;4179772;28;20184;-75
2022/08/05 04:08:05;;;;;;;3.30;3.00;;;19.30;59.50;;;;;;4179711;28;20741;-75
2022/08/05 04:10:06;;;;;;;7.93;5.70;;;19.20;60.20;;;;;;4163164;28;20185;-74
2022/08/05 04:12:07;;;;;;;3.77;3.33;;;19.20;60.30;;;;;;4195916;28;20204;-75
2022/08/05 04:14:09;;;;;;;4.57;3.10;;;19.20;60.20;;;;;;4181127;28;20224;-75
2022/08/05 04:16:12;;;;;;;6.13;5.57;;;19.20;60.00;;;;;;4179577;28;20176;-74
2022/08/05 04:18:14;;;;;;;106.13;26.80;;;19.20;60.10;;;;;;4179891;28;20208;-74
2022/08/05 04:20:20;;;;;;;3.73;3.33;;;19.20;60.40;;;;;;4179309;28;20222;-74
2022/08/05 04:22:21;;;;;;;3.93;3.63;;;19.20;60.50;;;;;;4195920;28;20211;-74
2022/08/05 04:24:22;;;;;;;4.80;2.80;;;19.20;60.60;;;;;;4180845;28;20700;-73
2022/08/05 04:26:22;;;;;;;4.03;3.73;;;19.10;61.30;;;;;;4180509;28;20262;-74
2022/08/05 04:28:23;;;;;;;4.50;3.50;;;19.10;61.30;;;;;;4179630;28;20211;-74
2022/08/05 04:30:24;;;;;;;4.13;3.80;;;19.10;61.20;;;;;;4180513;28;20207;-74
2022/08/05 04:32:24;;;;;;;6.27;5.87;;;19.10;61.10;;;;;;4181111;28;20291;-74
2022/08/05 04:34:25;;;;;;;3.87;3.57;;;19.20;60.40;;;;;;4163124;28;20204;-74
2022/08/05 04:36:26;;;;;;;4.43;4.03;;;19.30;60.60;;;;;;4179520;28;20608;-74
2022/08/05 04:38:26;;;;;;;6.23;5.77;;;19.20;60.90;;;;;;4180608;28;20185;-76
2022/08/05 04:40:27;;;;;;;3.60;3.30;;;19.20;61.20;;;;;;4178896;28;20271;-74
2022/08/05 04:42:28;;;;;;;4.43;4.13;;;19.30;61.10;;;;;;4179405;28;20645;-74
2022/08/05 04:44:28;;;;;;;3.30;3.07;;;19.40;60.60;;;;;;4181729;28;20185;-74
2022/08/05 04:46:29;;;;;;;13.53;7.23;;;19.50;59.90;;;;;;4171237;28;20204;-74
2022/08/05 04:48:30;;;;;;;4.13;3.47;;;19.60;59.30;;;;;;4171126;28;20556;-74
2022/08/05 04:50:31;;;;;;;10.17;9.47;;;19.90;58.40;;;;;;4180357;28;20185;-75
2022/08/05 04:52:32;;;;;;;14.00;12.73;;;20.00;58.70;;;;;;4172260;28;20653;-75
2022/08/05 04:54:32;;;;;;;9.17;8.53;;;19.90;59.20;;;;;;4162734;28;20189;-75
2022/08/05 04:56:33;;;;;;;3.87;3.33;;;19.90;59.10;;;;;;4163907;28;20185;-75
2022/08/05 04:58:35;;;;;;;3.73;3.37;;;19.90;58.90;;;;;;4163790;28;20186;-75
2022/08/05 05:00:37;;;;;;;3.00;2.80;;;20.00;58.10;;;;;;4162990;28;20185;-75
2022/08/05 05:02:37;;;;;;;12.30;11.13;;;20.20;57.30;;;;;;4164113;28;20727;-75
2022/08/05 05:04:38;;;;;;;6.60;6.10;;;20.50;56.10;;;;;;4161905;28;20196;-75
2022/08/05 05:06:39;;;;;;;4.80;4.40;;;20.80;54.80;;;;;;4162544;28;20191;-75
2022/08/05 05:08:40;;;;;;;7.00;6.40;;;21.10;54.10;;;;;;4162274;28;20181;-75
2022/08/05 05:10:45;;;;;;;3.70;3.10;;;21.30;52.80;;;;;;4161586;28;20558;-75
2022/08/05 05:12:46;;;;;;;26.67;24.60;;;21.50;52.50;;;;;;4162459;28;20236;-75
2022/08/05 05:14:46;;;;;;;3.70;3.40;;;21.60;51.80;;;;;;4163503;28;20223;-75
2022/08/05 05:16:47;;;;;;;11.00;7.63;;;21.60;52.30;;;;;;4163489;28;20676;-75
2022/08/05 05:18:48;;;;;;;4.17;2.67;;;21.70;51.80;;;;;;4162169;28;20676;-75
2022/08/05 05:20:49;;;;;;;4.20;2.57;;;21.80;51.60;;;;;;4161295;28;20196;-75
2022/08/05 05:22:49;;;;;;;3.43;3.00;;;21.80;51.30;;;;;;4161961;28;20193;-74
2022/08/05 05:24:50;;;;;;;3.63;3.27;;;21.90;51.20;;;;;;4161873;28;20653;-75
2022/08/05 05:26:51;;;;;;;2.87;2.37;;;22.00;50.90;;;;;;4170053;28;20597;-75
2022/08/05 05:28:51;;;;;;;4.70;2.57;;;21.90;51.50;;;;;;4179636;28;20184;-75
2022/08/05 05:30:52;;;;;;;4.50;4.20;;;22.00;51.30;;;;;;4178924;28;20196;-75
2022/08/05 05:32:53;;;;;;;4.10;3.80;;;21.90;52.00;;;;;;4179799;28;20208;-75
2022/08/05 05:34:54;;;;;;;4.00;3.70;;;21.90;51.90;;;;;;4178458;28;20214;-75
2022/08/05 05:36:54;;;;;;;9.10;8.53;;;21.80;52.00;;;;;;4179625;28;20559;-75
2022/08/05 05:38:55;;;;;;;5.13;2.87;;;21.90;51.60;;;;;;4179583;28;20192;-75
2022/08/05 05:40:56;;;;;;;3.70;2.80;;;22.10;51.10;;;;;;4177719;28;20207;-75
2022/08/05 05:42:57;;;;;;;5.83;4.87;;;22.10;50.80;;;;;;4179507;28;20181;-76
2022/08/05 05:44:58;;;;;;;3.80;3.37;;;22.10;51.10;;;;;;4161611;28;20224;-75
2022/08/05 05:46:59;;;;;;;24.33;21.23;;;22.10;50.80;;;;;;4179308;28;20188;-75
2022/08/05 05:49:00;;;;;;;380.03;227.33;;;22.00;51.30;;;;;;4179425;28;20249;-75
2022/08/05 05:51:00;;;;;;;23.43;14.90;;;22.00;51.80;;;;;;4178804;28;20677;-75
2022/08/05 05:53:01;;;;;;;31.43;15.80;;;21.80;52.80;;;;;;4179221;28;20204;-75
2022/08/05 05:55:07;;;;;;;19.93;18.13;;;21.70;53.20;;;;;;4177984;28;20678;-75
2022/08/05 05:57:08;;;;;;;37.40;17.90;;;21.70;54.20;;;;;;4179298;28;20656;-75
2022/08/05 05:59:09;;;;;;;4.13;3.57;;;21.70;54.30;;;;;;4179218;28;20176;-75
2022/08/05 06:01:09;;;;;;;451.67;197.77;;;21.70;54.40;;;;;;4177295;28;20215;-75
2022/08/05 06:03:10;;;;;;;231.77;99.07;;;21.70;54.90;;;;;;4178326;28;20184;-75
2022/08/05 06:05:13;;;;;;;7.47;6.73;;;21.70;55.70;;;;;;4178271;28;20238;-75
2022/08/05 06:07:13;;;;;;;13.80;12.60;;;21.60;57.00;;;;;;4178038;28;20814;-75
2022/08/05 06:09:15;;;;;;;12.87;10.17;;;21.70;55.70;;;;;;4177875;28;20200;-75
2022/08/05 06:11:15;;;;;;;302.87;75.20;;;21.90;55.10;;;;;;4177153;28;20757;-75
2022/08/05 06:13:16;;;;;;;9.37;8.67;;;21.80;55.70;;;;;;4179079;28;20215;-75
2022/08/05 06:15:17;;;;;;;6.60;6.00;;;21.80;55.80;;;;;;4177563;28;20172;-75
2022/08/05 06:17:17;;;;;;;11.77;10.57;;;21.90;55.50;;;;;;4177101;28;20398;-76
2022/08/05 06:19:18;;;;;;;108.47;69.67;;;21.90;55.50;;;;;;4177693;28;20343;-75
2022/08/05 06:21:19;;;;;;;37.30;25.23;;;21.90;55.70;;;;;;4177349;28;20204;-75
2022/08/05 06:23:20;;;;;;;1025.33;308.67;;;21.90;56.00;;;;;;4160820;28;20188;-76
2022/08/05 06:25:20;;;;;;;282.57;122.13;;;21.90;56.20;;;;;;4178811;28;20203;-75
2022/08/05 06:27:21;;;;;;;47.60;42.83;;;22.00;55.80;;;;;;4161087;28;20223;-75
2022/08/05 06:29:22;;;;;;;34.77;17.73;;;22.00;56.00;;;;;;4177501;28;20275;-75
2022/08/05 06:31:23;;;;;;;45.90;22.50;;;22.20;55.90;;;;;;4193473;28;20747;-75
2022/08/05 06:33:23;;;;;;;33.97;25.97;;;22.60;54.70;;;;;;4177599;28;20595;-75
2022/08/05 06:35:24;;;;;;;188.13;54.57;;;22.70;53.90;;;;;;4178861;28;20180;-75
2022/08/05 06:37:27;;;;;;;4.73;4.40;;;22.90;53.20;;;;;;4171479;28;20216;-76
2022/08/05 06:39:27;;;;;;;20.83;19.63;;;22.80;53.30;;;;;;4169266;28;20193;-75
2022/08/05 06:41:28;;;;;;;653.00;184.67;;;22.70;53.60;;;;;;4151844;28;20615;-76
2022/08/05 06:43:29;;;;;;;86.50;25.27;;;22.70;53.60;;;;;;4144782;28;20247;-75
2022/08/05 06:45:30;;;;;;;161.37;94.23;;;22.90;53.30;;;;;;4161082;28;20669;-75
2022/08/05 06:47:31;;;;;;;310.30;82.67;;;23.00;52.90;;;;;;4162243;28;20197;-75
2022/08/05 06:49:31;;;;;;;837.03;274.27;;;22.80;53.10;;;;;;4162220;28;20185;-74
2022/08/05 06:51:32;;;;;;;158.43;46.70;;;22.70;53.30;;;;;;4160520;28;20209;-75
2022/08/05 06:53:34;;;;;;;197.83;56.20;;;22.60;54.50;;;;;;4162205;28;20278;-75
2022/08/05 06:55:35;;;;;;;315.63;137.73;;;22.80;52.90;;;;;;4165014;28;20691;-75
2022/08/05 06:57:36;;;;;;;280.90;84.27;;;23.00;52.50;;;;;;4178761;28;20180;-74
2022/08/05 06:59:36;;;;;;;31.90;25.43;;;23.00;51.90;;;;;;4160807;28;20272;-75
2022/08/05 07:01:37;;;;;;;87.27;19.63;;;23.00;51.90;;;;;;4178081;28;20204;-75
2022/08/05 07:03:38;;;;;;;12.27;11.37;;;23.20;51.80;;;;;;4161204;28;20199;-74
2022/08/05 07:05:39;;;;;;;123.33;50.50;;;23.20;51.00;;;;;;4177563;28;20196;-75
2022/08/05 07:07:41;;;;;;;31.73;22.43;;;23.30;50.90;;;;;;4178776;28;20680;-75
2022/08/05 07:09:41;;;;;;;26.10;23.70;;;23.40;50.50;;;;;;4178127;28;20183;-76
2022/08/05 07:11:42;;;;;;;40.70;37.57;;;23.10;51.10;;;;;;4160507;28;20244;-75
2022/08/05 07:18:23;;;;;;;8.10;6.47;;;23.00;51.10;;;;;;4177473;28;20187;-76
2022/08/05 07:20:23;;;;;;;163.60;49.17;;;22.90;51.60;;;;;;4176657;28;20219;-75
2022/08/05 07:22:24;;;;;;;8.70;8.20;;;23.10;51.20;;;;;;4160543;28;20208;-75
2022/08/05 07:24:25;;;;;;;17.17;15.83;;;23.20;51.00;;;;;;4178355;28;20267;-75
2022/08/05 07:26:26;;;;;;;161.83;56.13;;;23.20;50.30;;;;;;4177031;28;20196;-76
2022/08/05 07:28:26;;;;;;;6.60;6.13;;;23.30;50.00;;;;;;4180867;28;20184;-74
2022/08/05 07:30:27;;;;;;;24.10;15.80;;;23.50;49.60;;;;;;4179214;28;20200;-76
2022/08/05 07:32:28;;;;;;;19.13;16.50;;;23.60;49.40;;;;;;4181423;28;20204;-75
2022/08/05 07:34:28;;;;;;;3.17;2.90;;;23.90;48.30;;;;;;4196554;28;20612;-75
2022/08/05 07:36:29;;;;;;;7.03;6.57;;;24.10;48.50;;;;;;4180154;28;20650;-76
2022/08/05 07:38:30;;;;;;;50.23;33.73;;;24.30;46.90;;;;;;4180129;28;20178;-76
2022/08/05 07:40:31;;;;;;;378.30;137.00;;;24.50;45.60;;;;;;4179557;28;20189;-75
2022/08/05 07:42:32;;;;;;;211.77;183.83;;;24.40;45.30;;;;;;4180272;28;20291;-75
2022/08/05 07:44:33;;;;;;;14.53;13.73;;;24.20;45.00;;;;;;4179958;28;20664;-74
2022/08/05 07:46:33;;;;;;;14.80;13.47;;;24.20;45.60;;;;;;4179945;28;20188;-75
2022/08/05 07:48:34;;;;;;;5.67;5.37;;;24.40;45.10;;;;;;4181262;28;20267;-75
2022/08/05 07:50:35;;;;;;;130.10;70.77;;;24.50;45.10;;;;;;4180574;28;20226;-74
2022/08/05 07:52:41;;;;;;;39.60;26.30;;;24.70;44.50;;;;;;4180330;28;20259;-75
2022/08/05 07:54:42;;;;;;;5.63;5.33;;;24.30;45.20;;;;;;4180211;28;20255;-76
2022/08/05 07:56:43;;;;;;;36.40;18.83;;;24.30;45.10;;;;;;4181178;28;20184;-74
2022/08/05 07:58:44;;;;;;;41.73;13.87;;;24.20;46.00;;;;;;4163336;28;20185;-75
2022/08/05 08:00:45;;;;;;;8.50;7.83;;;24.30;45.20;;;;;;4179177;28;20866;-75
2022/08/05 08:02:46;;;;;;;6.23;5.90;;;24.30;47.10;;;;;;4180009;28;20191;-75
2022/08/05 08:04:47;;;;;;;6.40;6.07;;;24.70;46.20;;;;;;4179732;28;20191;-75
2022/08/05 08:06:48;;;;;;;5.83;5.47;;;24.70;46.30;;;;;;4179688;28;20188;-75
2022/08/05 08:08:48;;;;;;;72.87;32.93;;;24.90;45.50;;;;;;4179517;28;20556;-76
2022/08/05 08:10:49;;;;;;;11.20;10.03;;;25.00;44.40;;;;;;4178710;28;20184;-74
2022/08/05 08:12:50;;;;;;;31.93;30.17;;;25.00;43.00;;;;;;4174107;28;20303;-75
2022/08/05 08:14:51;;;;;;;15.57;14.17;;;25.00;44.30;;;;;;4170998;28;20187;-75
2022/08/05 08:16:51;;;;;;;23.43;6.10;;;24.90;43.70;;;;;;4168607;28;20181;-75
2022/08/05 08:18:52;;;;;;;65.20;27.20;;;25.00;43.40;;;;;;4163117;28;20177;-75
2022/08/05 08:20:53;;;;;;;15.67;14.17;;;24.80;43.00;;;;;;4145867;28;20181;-76
2022/08/05 08:22:58;;;;;;;14.63;13.60;;;24.80;43.00;;;;;;4162931;28;20645;-76
2022/08/05 08:24:59;;;;;;;7.40;6.90;;;24.70;43.30;;;;;;4146745;28;20638;-76
2022/08/05 08:27:00;;;;;;;7.60;7.00;;;24.90;43.00;;;;;;4162951;28;20892;-75
2022/08/05 08:29:01;;;;;;;11.67;10.70;;;24.70;43.10;;;;;;4162786;28;20700;-77
2022/08/05 08:31:02;;;;;;;10.70;10.10;;;24.70;43.60;;;;;;4163534;28;20220;-76
2022/08/05 08:33:12;;;;;;;5.60;5.27;;;24.60;44.50;;;;;;4162818;28;20205;-76
2022/08/05 08:35:12;;;;;;;5.17;4.87;;;24.60;43.20;;;;;;4162911;28;20188;-75
2022/08/05 08:37:13;;;;;;;40.90;14.60;;;24.40;44.40;;;;;;4164057;28;20577;-71
2022/08/05 08:39:16;;;;;;;2.47;2.27;;;24.50;44.20;;;;;;4162798;28;20184;-73
2022/08/05 08:41:17;;;;;;;3.43;3.23;;;24.60;44.40;;;;;;4145846;28;20209;-74
2022/08/05 08:43:18;;;;;;;6.23;5.10;;;24.90;43.70;;;;;;4179137;28;20700;-73
2022/08/05 08:45:22;;;;;;;15.60;14.80;;;24.90;43.60;;;;;;4162171;28;20279;-72
2022/08/05 08:47:26;;;;;;;9.20;8.57;;;25.10;42.90;;;;;;4167927;28;20634;-69
2022/08/05 08:49:28;;;;;;;10.57;10.00;;;25.30;43.40;;;;;;4175030;28;20193;-71
2022/08/05 08:51:33;;;;;;;7.67;7.23;;;25.50;41.50;;;;;;4174923;28;20251;-72
2022/08/05 08:53:36;;;;;;;98.83;44.27;;;25.50;41.50;;;;;;4174503;28;20212;-72
2022/08/05 08:55:39;;;;;;;9.43;8.73;;;25.70;40.60;;;;;;4160614;28;20181;-73
2022/08/05 08:57:40;;;;;;;40.87;37.10;;;25.80;39.70;;;;;;4178644;28;20601;-72
2022/08/05 08:59:41;;;;;;;21.60;19.60;;;26.10;38.40;;;;;;4178064;28;20192;-73
2022/08/05 09:01:44;;;;;;;7.83;7.23;;;26.10;38.20;;;;;;4178345;28;20201;-72
2022/08/05 09:03:49;;;;;;;29.60;27.67;;;26.00;38.60;;;;;;4178698;28;20555;-71
2022/08/05 09:05:49;;;;;;;12.40;11.37;;;26.20;38.00;;;;;;4179711;28;20200;-71
2022/08/05 09:07:52;;;;;;;6.87;6.47;;;26.20;37.70;;;;;;4178422;28;20789;-71
2022/08/05 09:09:52;;;;;;;5.53;5.23;;;26.00;38.00;;;;;;4179565;28;20609;-71
2022/08/05 09:11:53;;;;;;;2.00;1.80;;;25.90;37.70;;;;;;4179159;28;20208;-71
2022/08/05 09:13:55;;;;;;;2.73;2.53;;;26.60;37.40;;;;;;4178145;28;20742;-71
2022/08/05 09:15:55;;;;;;;3.00;2.80;;;27.10;35.80;;;;;;4178171;28;20184;-71
2022/08/05 09:17:56;;;;;;;6.00;5.50;;;26.60;36.50;;;;;;4179537;28;20203;-72
2022/08/05 09:19:58;;;;;;;5.53;5.23;;;26.70;37.90;;;;;;4179184;28;20188;-71
2022/08/05 09:21:59;;;;;;;3.97;3.73;;;26.70;36.90;;;;;;4178924;28;20204;-74
2022/08/05 09:24:08;;;;;;;50.10;47.30;;;26.50;36.70;;;;;;4180242;28;20180;-76
2022/08/05 09:26:16;;;;;;;3.07;2.83;;;26.20;37.10;;;;;;4162625;28;20188;-76
2022/08/05 09:28:23;;;;;;;22.47;20.50;;;26.40;37.80;;;;;;4175970;28;20259;-76
2022/08/05 09:30:24;;;;;;;43.70;39.50;;;26.70;36.80;;;;;;4178257;28;20587;-71
2022/08/05 09:32:38;;;;;;;4.47;4.13;;;27.10;36.00;;;;;;4161961;28;20279;-72
2022/08/05 09:34:53;;;;;;;3.37;2.57;;;27.30;35.90;;;;;;4168403;28;20196;-71
2022/08/05 09:36:54;;;;;;;4.53;4.23;;;27.30;35.80;;;;;;4178518;28;20172;-72
2022/08/05 09:39:01;;;;;;;5.30;5.00;;;27.60;35.20;;;;;;4180156;28;20203;-72
2022/08/05 09:41:09;;;;;;;65.63;43.90;;;28.20;34.40;;;;;;4179489;28;20244;-72
2022/08/05 09:43:32;;;;;;;3.43;2.63;;;28.40;33.60;;;;;;4178955;28;20647;-71
2022/08/05 09:45:39;;;;;;;10.43;9.77;;;28.60;33.50;;;;;;4180581;28;20180;-72
2022/08/05 09:47:41;;;;;;;5.43;5.03;;;28.50;33.10;;;;;;4180100;28;20250;-74
2022/08/05 09:49:53;;;;;;;5.13;4.83;;;28.10;33.90;;;;;;4180052;28;20287;-72
2022/08/05 09:51:54;;;;;;;55.30;50.93;;;28.40;34.20;;;;;;4177730;28;20215;-71
2022/08/05 09:53:55;;;;;;;2.67;2.47;;;28.70;33.00;;;;;;4175336;28;20623;-72
2022/08/05 09:55:59;;;;;;;3.10;2.40;;;29.10;32.90;;;;;;4179380;28;20181;-71
2022/08/05 09:58:13;;;;;;;3.63;3.40;;;29.20;31.80;;;;;;4177807;28;20861;-69
2022/08/05 10:00:16;;;;;;;4.07;2.20;;;29.40;31.20;;;;;;4178743;28;20180;-72
2022/08/05 10:02:31;;;;;;;26.25;24.70;;;29.90;31.30;;;;;;4177354;28;20896;-72
2022/08/05 10:04:38;;;;;;;16.60;15.60;;;29.60;30.80;;;;;;4177450;28;20198;-72
2022/08/05 10:06:56;;;;;;;23.38;21.02;;;29.30;31.70;;;;;;4177871;28;20180;-72
2022/08/05 10:09:10;;;;;;;6.73;6.13;;;29.00;31.70;;;;;;4177595;28;20192;-71
2022/08/05 10:11:15;;;;;;;3.90;3.70;;;28.00;34.30;;;;;;4176909;28;20214;-72
2022/08/05 10:13:37;;;;;;;5.20;4.57;;;28.20;34.10;;;;;;4177714;28;20286;-72
2022/08/05 10:15:39;;;;;;;3.23;2.97;;;27.80;34.50;;;;;;4177419;28;20654;-70
2022/08/05 10:17:41;;;;;;;4.23;3.93;;;28.30;34.40;;;;;;4177585;28;20655;-70
2022/08/05 10:19:42;;;;;;;12.17;10.90;;;28.60;32.90;;;;;;4178589;28;20189;-71
2022/08/05 10:21:44;;;;;;;14.47;13.47;;;28.80;32.50;;;;;;4177971;28;20215;-73
2022/08/05 10:23:46;;;;;;;6.83;6.17;;;28.90;31.90;;;;;;4179201;28;20644;-71
2022/08/05 10:25:47;;;;;;;2.87;2.67;;;29.20;31.60;;;;;;4177535;28;20742;-72
2022/08/05 10:27:49;;;;;;;5.00;4.60;;;29.00;31.20;;;;;;4177242;28;20225;-70
2022/08/05 10:29:49;;;;;;;4.43;4.13;;;29.40;31.60;;;;;;4178483;28;20200;-71
2022/08/05 10:31:50;;;;;;;12.83;12.10;;;29.50;30.80;;;;;;4178231;28;20279;-70
2022/08/05 10:33:51;;;;;;;2.67;2.50;;;29.90;29.80;;;;;;4177302;28;20223;-70
2022/08/05 10:35:52;;;;;;;3.15;2.45;;;30.70;29.30;;;;;;4177364;28;20215;-70
2022/08/05 10:37:54;;;;;;;4.03;3.67;;;30.90;28.60;;;;;;4178466;28;20199;-70
2022/08/05 10:39:57;;;;;;;4.28;3.92;;;31.30;28.00;;;;;;4178462;28;20183;-69